createdAt,value
2017-06-20T00:00:16.228Z,9.27
2017-06-20T00:02:44.636Z,8.90
2017-06-20T00:05:13.451Z,9.17
2017-06-20T00:07:41.869Z,9.10
2017-06-20T00:10:10.308Z,9.70
2017-06-20T00:12:38.777Z,9.50
2017-06-20T00:15:07.984Z,9.23
2017-06-20T00:17:37.152Z,9.70
2017-06-20T00:20:05.706Z,9.53
2017-06-20T00:22:34.116Z,10.17
2017-06-20T00:25:02.629Z,9.73
2017-06-20T00:27:31.207Z,10.60
2017-06-20T00:29:59.637Z,10.13
2017-06-20T00:32:28.056Z,9.03
2017-06-20T00:34:56.773Z,10.10
2017-06-20T00:37:25.180Z,10.10
2017-06-20T00:39:53.599Z,10.87
2017-06-20T00:42:22.855Z,10.90
2017-06-20T00:44:51.395Z,10.40
2017-06-20T00:47:19.862Z,10.33
2017-06-20T00:49:48.370Z,10.10
2017-06-20T00:52:16.797Z,9.27
2017-06-20T00:54:45.307Z,9.40
2017-06-20T00:57:13.807Z,10.10
2017-06-20T00:59:42.234Z,10.20
2017-06-20T01:02:10.669Z,10.03
2017-06-20T01:04:39.100Z,9.80
2017-06-20T01:07:08.296Z,10.27
2017-06-20T01:09:37.480Z,10.80
2017-06-20T01:12:06.121Z,10.57
2017-06-20T01:14:36.004Z,10.20
2017-06-20T01:17:05.200Z,10.97
2017-06-20T01:19:34.045Z,11.37
2017-06-20T01:22:02.471Z,9.90
2017-06-20T01:24:31.714Z,10.00
2017-06-20T01:26:59.775Z,11.00
2017-06-20T01:29:28.221Z,10.03
2017-06-20T01:31:56.716Z,9.80
2017-06-20T01:34:25.184Z,10.60
2017-06-20T01:36:53.671Z,10.10
2017-06-20T01:39:22.563Z,10.13
2017-06-20T01:41:50.633Z,9.93
2017-06-20T01:44:19.099Z,9.37
2017-06-20T01:46:47.793Z,10.00
2017-06-20T01:49:16.224Z,10.67
2017-06-20T01:51:44.628Z,10.00
2017-06-20T01:54:14.255Z,11.07
2017-06-20T01:56:42.735Z,11.30
2017-06-20T01:59:11.141Z,9.73
2017-06-20T02:01:39.279Z,10.03
2017-06-20T02:04:08.464Z,9.63
2017-06-20T02:06:37.656Z,10.80
2017-06-20T02:09:06.980Z,10.17
2017-06-20T02:11:34.705Z,9.37
2017-06-20T02:14:03.126Z,11.10
2017-06-20T02:16:31.809Z,10.40
2017-06-20T02:19:00.279Z,10.70
2017-06-20T02:21:28.965Z,10.37
2017-06-20T02:23:58.580Z,10.10
2017-06-20T02:26:26.999Z,10.07
2017-06-20T02:28:55.412Z,10.77
2017-06-20T02:31:24.277Z,10.20
2017-06-20T02:33:52.688Z,9.97
2017-06-20T02:36:21.903Z,10.10
2017-06-20T02:38:50.515Z,10.23
2017-06-20T02:41:18.939Z,10.00
2017-06-20T02:43:48.125Z,10.83
2017-06-20T02:46:16.737Z,10.53
2017-06-20T02:48:45.235Z,10.97
2017-06-20T02:51:13.644Z,10.77
2017-06-20T02:53:42.288Z,11.40
2017-06-20T02:56:10.721Z,11.67
2017-06-20T02:58:39.139Z,10.17
2017-06-20T03:01:07.664Z,11.07
2017-06-20T03:03:36.132Z,11.10
2017-06-20T03:06:04.532Z,11.50
2017-06-20T03:08:32.660Z,11.30
2017-06-20T03:11:12.413Z,11.40
2017-06-20T03:13:41.075Z,11.10
2017-06-20T03:16:09.486Z,15.10
2017-06-20T03:18:37.912Z,13.50
2017-06-20T03:21:06.373Z,11.77
2017-06-20T03:23:34.791Z,12.03
2017-06-20T03:26:03.979Z,13.03
2017-06-20T03:28:33.399Z,11.00
2017-06-20T03:31:01.864Z,11.80
2017-06-20T03:33:31.058Z,11.10
2017-06-20T03:36:00.673Z,12.67
2017-06-20T03:38:30.587Z,13.80
2017-06-20T03:40:59.009Z,12.37
2017-06-20T03:43:27.470Z,12.20
2017-06-20T03:45:55.904Z,11.37
2017-06-20T03:48:24.320Z,11.27
2017-06-20T03:50:53.195Z,11.40
2017-06-20T03:53:21.613Z,11.27
2017-06-20T03:55:50.028Z,11.53
2017-06-20T03:58:18.513Z,11.43
2017-06-20T04:00:46.928Z,10.57
2017-06-20T04:03:15.396Z,11.70
2017-06-20T04:05:43.844Z,10.53
2017-06-20T04:08:12.301Z,11.37
2017-06-20T04:10:40.733Z,11.27
2017-06-20T04:13:09.417Z,11.50
2017-06-20T04:15:37.908Z,11.30
2017-06-20T04:18:06.336Z,10.93
2017-06-20T04:20:34.580Z,11.90
2017-06-20T04:23:03.004Z,11.67
2017-06-20T04:25:32.231Z,11.43
2017-06-20T04:28:00.907Z,12.93
2017-06-20T04:30:29.396Z,12.20
2017-06-20T04:32:57.816Z,13.00
2017-06-20T04:35:26.256Z,15.03
2017-06-20T04:37:54.688Z,12.70
2017-06-20T04:40:23.115Z,12.80
2017-06-20T04:42:51.575Z,13.60
2017-06-20T04:45:20.744Z,11.87
2017-06-20T04:47:49.159Z,12.00
2017-06-20T04:50:17.601Z,11.27
2017-06-20T04:52:46.116Z,12.60
2017-06-20T04:55:14.528Z,12.70
2017-06-20T04:57:43.080Z,12.13
2017-06-20T05:00:11.500Z,12.00
2017-06-20T05:02:39.919Z,12.93
2017-06-20T05:05:09.113Z,11.83
2017-06-20T05:07:37.532Z,12.60
2017-06-20T05:10:05.949Z,12.40
2017-06-20T05:12:34.388Z,12.67
2017-06-20T05:15:02.804Z,13.50
2017-06-20T05:17:31.359Z,12.10
2017-06-20T05:19:59.818Z,18.60
2017-06-20T05:22:28.285Z,12.60
2017-06-20T05:24:57.474Z,12.93
2017-06-20T05:27:26.796Z,11.60
2017-06-20T05:29:55.208Z,11.27
2017-06-20T05:32:23.640Z,11.83
2017-06-20T05:34:52.855Z,12.10
2017-06-20T05:37:21.288Z,12.17
2017-06-20T05:39:51.267Z,12.23
2017-06-20T05:42:19.703Z,11.67
2017-06-20T05:44:48.886Z,11.43
2017-06-20T05:47:17.983Z,10.73
2017-06-20T05:49:47.325Z,12.33
2017-06-20T05:52:15.744Z,12.30
2017-06-20T05:54:44.156Z,11.37
2017-06-20T05:57:13.500Z,10.33
2017-06-20T05:59:41.959Z,12.50
2017-06-20T06:02:10.441Z,11.30
2017-06-20T06:04:39.009Z,11.60
2017-06-20T06:07:07.429Z,11.60
2017-06-20T06:09:35.856Z,12.43
2017-06-20T06:12:05.268Z,11.60
2017-06-20T06:14:33.720Z,11.70
2017-06-20T06:17:02.139Z,11.67
2017-06-20T06:19:30.603Z,12.03
2017-06-20T06:21:59.034Z,11.20
2017-06-20T06:24:27.528Z,11.20
2017-06-20T06:26:55.943Z,10.83
2017-06-20T06:29:24.424Z,11.60
2017-06-20T06:31:52.857Z,11.70
2017-06-20T06:34:21.664Z,10.40
2017-06-20T06:36:50.083Z,10.40
2017-06-20T06:39:18.511Z,10.67
2017-06-20T06:41:46.957Z,10.00
2017-06-20T06:44:15.398Z,10.93
2017-06-20T06:46:44.577Z,9.70
2017-06-20T06:49:13.257Z,10.17
2017-06-20T06:51:41.664Z,8.90
2017-06-20T06:54:10.840Z,9.23
2017-06-20T06:56:40.273Z,9.47
2017-06-20T06:59:08.752Z,9.23
2017-06-20T07:01:37.167Z,10.93
2017-06-20T07:04:05.671Z,10.70
2017-06-20T07:06:34.076Z,10.57
2017-06-20T07:09:03.080Z,10.80
2017-06-20T07:11:32.168Z,11.30
2017-06-20T07:14:00.596Z,11.87
2017-06-20T07:16:29.036Z,9.60
2017-06-20T07:18:57.911Z,11.97
2017-06-20T07:21:26.329Z,9.83
2017-06-20T07:23:54.773Z,9.50
2017-06-20T07:26:23.556Z,9.70
2017-06-20T07:28:52.734Z,8.70
2017-06-20T07:31:21.832Z,8.53
2017-06-20T07:33:51.452Z,7.70
2017-06-20T07:36:19.864Z,8.00
2017-06-20T07:38:48.328Z,8.90
2017-06-20T07:41:17.002Z,8.70
2017-06-20T07:43:45.431Z,9.10
2017-06-20T07:46:13.841Z,8.63
2017-06-20T07:48:43.261Z,9.57
2017-06-20T07:51:11.672Z,8.20
2017-06-20T07:53:39.944Z,9.07
2017-06-20T07:56:08.491Z,8.23
2017-06-20T07:58:36.909Z,8.60
2017-06-20T08:01:05.323Z,8.37
2017-06-20T08:03:34.089Z,8.37
2017-06-20T08:06:02.492Z,8.63
2017-06-20T08:08:30.908Z,8.03
2017-06-20T08:10:59.584Z,8.30
2017-06-20T08:13:27.999Z,8.00
2017-06-20T08:15:56.411Z,7.90
2017-06-20T08:18:24.925Z,8.63
2017-06-20T08:20:53.145Z,8.30
2017-06-20T08:23:21.556Z,8.10
2017-06-20T08:25:50.774Z,7.27
2017-06-20T08:28:19.179Z,7.70
2017-06-20T08:30:47.616Z,8.50
2017-06-20T08:33:16.371Z,8.00
2017-06-20T08:35:44.597Z,7.73
2017-06-20T08:38:13.021Z,7.40
2017-06-20T08:40:41.501Z,8.20
2017-06-20T08:43:10.504Z,7.30
2017-06-20T08:45:38.582Z,7.40
2017-06-20T08:48:07.014Z,7.63
2017-06-20T08:50:35.430Z,7.20
2017-06-20T08:53:03.857Z,8.00
2017-06-20T08:55:32.393Z,6.90
2017-06-20T08:58:00.904Z,7.27
2017-06-20T09:00:30.096Z,7.40
2017-06-20T09:02:59.288Z,7.43
2017-06-20T09:05:28.455Z,7.40
2017-06-20T09:07:56.874Z,7.20
2017-06-20T09:10:25.664Z,7.10
2017-06-20T09:12:54.144Z,6.90
2017-06-20T09:15:23.311Z,7.33
2017-06-20T09:17:51.860Z,7.40
2017-06-20T09:20:20.284Z,7.30
2017-06-20T09:22:48.708Z,7.07
2017-06-20T09:25:17.136Z,7.53
2017-06-20T09:27:46.370Z,6.93
2017-06-20T09:30:14.779Z,6.60
2017-06-20T09:32:43.622Z,6.90
2017-06-20T09:35:12.051Z,6.93
2017-06-20T09:37:40.456Z,6.43
2017-06-20T09:40:08.916Z,6.83
2017-06-20T09:42:37.139Z,6.80
2017-06-20T09:45:05.355Z,6.87
2017-06-20T09:47:34.195Z,6.30
2017-06-20T09:50:03.363Z,7.00
2017-06-20T09:52:31.875Z,6.70
2017-06-20T09:55:00.450Z,7.20
2017-06-20T09:57:28.872Z,6.73
2017-06-20T09:59:57.288Z,7.23
2017-06-20T10:02:25.895Z,7.20
2017-06-20T10:04:54.328Z,6.93
2017-06-20T10:07:22.745Z,6.83
2017-06-20T10:09:52.165Z,6.60
2017-06-20T10:12:20.622Z,6.27
2017-06-20T10:14:49.733Z,6.40
2017-06-20T10:17:18.621Z,5.97
2017-06-20T10:19:47.112Z,6.30
2017-06-20T10:22:15.602Z,6.40
2017-06-20T10:24:44.037Z,5.60
2017-06-20T10:27:12.451Z,6.43
2017-06-20T10:29:40.918Z,6.80
2017-06-20T10:32:09.745Z,6.50
2017-06-20T10:34:38.166Z,5.73
2017-06-20T10:37:06.717Z,5.73
2017-06-20T10:39:35.144Z,6.37
2017-06-20T10:42:03.555Z,5.90
2017-06-20T10:44:31.973Z,5.83
2017-06-20T10:47:00.320Z,6.30
2017-06-20T10:49:28.765Z,5.70
2017-06-20T10:51:57.354Z,5.17
2017-06-20T10:54:26.024Z,5.97
2017-06-20T10:56:54.435Z,6.03
2017-06-20T10:59:22.931Z,6.87
2017-06-20T11:01:51.779Z,6.70
2017-06-20T11:04:20.954Z,6.97
2017-06-20T11:06:50.145Z,6.77
2017-06-20T11:09:18.755Z,6.73
2017-06-20T11:11:47.949Z,6.90
2017-06-20T11:14:17.140Z,7.23
2017-06-20T11:16:45.579Z,7.83
2017-06-20T11:19:13.990Z,8.53
2017-06-20T11:21:42.516Z,9.03
2017-06-20T11:24:10.962Z,8.67
2017-06-20T11:26:40.309Z,8.70
2017-06-20T11:29:08.822Z,11.50
2017-06-20T11:31:37.942Z,7.77
2017-06-20T11:34:06.368Z,9.87
2017-06-20T11:36:34.784Z,9.10
2017-06-20T11:39:03.272Z,9.33
2017-06-20T11:41:31.745Z,9.63
2017-06-20T11:44:01.080Z,9.10
2017-06-20T11:46:29.925Z,8.70
2017-06-20T11:48:58.329Z,9.27
2017-06-20T11:51:26.796Z,8.87
2017-06-20T11:53:55.619Z,9.20
2017-06-20T11:56:24.032Z,8.47
2017-06-20T11:58:52.436Z,9.03
2017-06-20T12:01:21.848Z,8.53
2017-06-20T12:03:50.263Z,8.77
2017-06-20T12:06:18.663Z,9.37
2017-06-20T12:08:47.121Z,8.93
2017-06-20T12:11:15.569Z,9.07
2017-06-20T12:13:43.980Z,9.20
2017-06-20T12:16:12.620Z,9.17
2017-06-20T12:18:41.040Z,8.77
2017-06-20T12:21:09.452Z,8.33
2017-06-20T12:23:37.937Z,8.57
2017-06-20T12:26:06.351Z,7.90
2017-06-20T12:28:34.780Z,8.00
2017-06-20T12:31:03.704Z,7.90
2017-06-20T12:33:32.180Z,8.23
2017-06-20T12:36:01.365Z,8.17
2017-06-20T12:38:29.965Z,8.63
2017-06-20T12:40:58.455Z,8.20
2017-06-20T12:43:26.866Z,8.53
2017-06-20T12:45:55.308Z,8.50
2017-06-20T12:48:23.776Z,8.57
2017-06-20T12:50:52.988Z,9.70
2017-06-20T12:53:21.792Z,10.33
2017-06-20T12:55:50.254Z,9.10
2017-06-20T12:58:18.723Z,10.10
2017-06-20T13:00:47.159Z,9.43
2017-06-20T13:03:15.581Z,10.20
2017-06-20T13:05:44.005Z,10.17
2017-06-20T13:08:12.468Z,9.67
2017-06-20T13:10:40.919Z,10.00
2017-06-20T13:13:09.403Z,9.03
2017-06-20T13:15:37.991Z,9.00
2017-06-20T13:18:06.443Z,9.27
2017-06-20T13:20:34.937Z,8.73
2017-06-20T13:23:03.626Z,8.90
2017-06-20T13:25:32.137Z,9.13
2017-06-20T13:28:00.588Z,9.40
2017-06-20T13:30:29.093Z,10.20
2017-06-20T13:32:57.514Z,14.43
2017-06-20T13:35:25.949Z,16.00
2017-06-20T13:37:54.631Z,16.50
2017-06-20T13:40:23.036Z,15.03
2017-06-20T13:42:51.458Z,16.27
2017-06-20T13:45:20.681Z,15.67
2017-06-20T13:47:49.096Z,18.50
2017-06-20T13:50:17.515Z,18.40
2017-06-20T13:52:45.988Z,18.90
2017-06-20T13:55:15.223Z,18.60
2017-06-20T13:57:43.672Z,19.57
2017-06-20T14:00:12.365Z,18.13
2017-06-20T14:02:40.787Z,16.53
2017-06-20T14:05:09.196Z,17.93
2017-06-20T14:07:38.572Z,15.00
2017-06-20T14:10:07.735Z,14.63
2017-06-20T14:12:36.145Z,16.20
2017-06-20T14:15:04.781Z,18.03
2017-06-20T14:17:33.227Z,20.77
2017-06-20T14:20:01.730Z,20.27
2017-06-20T14:22:30.223Z,20.53
2017-06-20T14:24:58.640Z,28.40
2017-06-20T14:27:27.172Z,20.23
2017-06-20T14:29:55.655Z,20.10
2017-06-20T14:32:24.131Z,19.03
2017-06-20T14:34:52.584Z,17.83
2017-06-20T14:37:21.048Z,15.40
2017-06-20T14:39:50.151Z,14.07
2017-06-20T14:42:18.568Z,13.67
2017-06-20T14:44:47.052Z,13.80
2017-06-20T14:47:15.547Z,13.40
2017-06-20T14:49:43.969Z,15.77
2017-06-20T14:52:12.540Z,15.00
2017-06-20T14:54:40.990Z,16.20
2017-06-20T14:57:09.404Z,13.50
2017-06-20T14:59:37.900Z,16.30
2017-06-20T15:02:06.344Z,13.97
2017-06-20T15:04:34.564Z,13.33
2017-06-20T15:07:03.777Z,13.50
2017-06-20T15:09:32.204Z,13.13
2017-06-20T15:12:00.627Z,12.20
2017-06-20T15:14:29.156Z,12.83
2017-06-20T15:16:57.588Z,12.43
2017-06-20T15:19:26.025Z,11.90
2017-06-20T15:21:54.499Z,11.27
2017-06-20T15:24:23.139Z,15.70
2017-06-20T15:26:51.550Z,11.73
2017-06-20T15:29:19.997Z,14.93
2017-06-20T15:31:48.424Z,18.60
2017-06-20T15:34:16.845Z,13.90
2017-06-20T15:36:45.616Z,15.60
2017-06-20T15:39:15.073Z,13.13
2017-06-20T15:41:43.614Z,13.70
2017-06-20T15:44:12.397Z,13.97
2017-06-20T15:46:40.868Z,12.87
2017-06-20T15:49:10.060Z,12.70
2017-06-20T15:51:38.508Z,13.23
2017-06-20T15:54:06.357Z,13.17
2017-06-20T15:56:34.768Z,11.23
2017-06-20T15:59:03.249Z,12.20
2017-06-20T16:01:31.756Z,11.70
2017-06-20T16:04:00.180Z,13.43
2017-06-20T16:06:28.667Z,14.33
2017-06-20T16:08:57.078Z,12.47
2017-06-20T16:11:25.510Z,11.00
2017-06-20T16:13:55.193Z,12.10
2017-06-20T16:16:23.663Z,11.10
2017-06-20T16:18:52.081Z,10.43
2017-06-20T16:21:20.657Z,10.23
2017-06-20T16:23:49.077Z,15.27
2017-06-20T16:26:17.516Z,11.50
2017-06-20T16:28:46.086Z,12.20
2017-06-20T16:31:14.564Z,11.50
2017-06-20T16:33:42.983Z,32.70
2017-06-20T16:36:11.434Z,19.10
2017-06-20T16:38:39.865Z,11.67
2017-06-20T16:41:09.064Z,13.60
2017-06-20T16:43:38.305Z,10.37
2017-06-20T16:46:06.731Z,9.90
2017-06-20T16:48:36.272Z,9.90
2017-06-20T16:51:04.755Z,9.60
2017-06-20T16:53:33.193Z,11.27
2017-06-20T16:56:02.376Z,22.37
2017-06-20T16:58:30.997Z,20.17
2017-06-20T17:00:59.429Z,14.50
2017-06-20T17:03:27.869Z,15.33
2017-06-20T17:05:56.358Z,18.50
2017-06-20T17:08:24.788Z,25.73
2017-06-20T17:10:53.206Z,25.50
2017-06-20T17:13:21.649Z,47.43
2017-06-20T17:15:50.066Z,17.53
2017-06-20T17:18:18.508Z,10.30
2017-06-20T17:20:47.720Z,26.63
2017-06-20T17:23:16.234Z,12.33
2017-06-20T17:25:44.930Z,12.30
2017-06-20T17:28:13.343Z,15.40
2017-06-20T17:30:41.755Z,16.63
2017-06-20T17:33:10.185Z,10.30
2017-06-20T17:35:38.604Z,11.83
2017-06-20T17:38:07.044Z,45.67
2017-06-20T17:40:35.488Z,15.67
2017-06-20T17:43:03.903Z,15.80
2017-06-20T17:45:32.353Z,31.27
2017-06-20T17:48:00.772Z,15.57
2017-06-20T17:50:29.349Z,13.10
2017-06-20T17:52:57.797Z,11.13
2017-06-20T17:55:26.205Z,14.90
2017-06-20T17:57:54.652Z,12.47
2017-06-20T18:00:23.089Z,21.80
2017-06-20T18:02:52.311Z,30.60
2017-06-20T18:05:20.725Z,16.30
2017-06-20T18:07:49.145Z,18.30
2017-06-20T18:10:18.341Z,18.63
2017-06-20T18:12:47.533Z,13.70
2017-06-20T18:15:16.953Z,11.07
2017-06-20T18:17:45.431Z,13.90
2017-06-20T18:20:13.676Z,13.87
2017-06-20T18:22:42.102Z,13.10
2017-06-20T18:25:10.549Z,15.20
2017-06-20T18:27:40.181Z,21.00
2017-06-20T18:30:08.599Z,15.10
2017-06-20T18:32:37.017Z,33.10
2017-06-20T18:35:06.236Z,23.83
2017-06-20T18:37:34.664Z,18.77
2017-06-20T18:40:03.092Z,20.10
2017-06-20T18:42:31.544Z,16.30
2017-06-20T18:45:00.742Z,13.83
2017-06-20T18:47:31.655Z,14.87
2017-06-20T18:50:00.063Z,12.27
2017-06-20T18:52:29.271Z,13.17
2017-06-20T18:54:57.759Z,13.10
2017-06-20T18:57:26.176Z,11.80
2017-06-20T18:59:54.612Z,12.10
2017-06-20T19:02:23.090Z,17.10
2017-06-20T19:04:51.525Z,15.77
2017-06-20T19:07:19.957Z,23.33
2017-06-20T19:09:48.461Z,17.53
2017-06-20T19:12:16.930Z,15.30
2017-06-20T19:14:45.341Z,16.80
2017-06-20T19:17:13.800Z,14.97
2017-06-20T19:19:42.384Z,15.40
2017-06-20T19:22:10.962Z,13.47
2017-06-20T19:24:39.511Z,14.50
2017-06-20T19:27:07.981Z,13.70
2017-06-20T19:29:36.057Z,12.63
2017-06-20T19:32:04.526Z,13.10
2017-06-20T19:34:33.780Z,12.87
2017-06-20T19:37:02.208Z,12.57
2017-06-20T19:39:31.563Z,11.60
2017-06-20T19:42:00.029Z,15.80
2017-06-20T19:44:28.461Z,22.27
2017-06-20T19:46:56.939Z,16.23
2017-06-20T19:49:25.356Z,15.83
2017-06-20T19:51:53.808Z,15.03
2017-06-20T19:54:22.300Z,13.43
2017-06-20T19:56:50.720Z,11.73
2017-06-20T19:59:19.165Z,13.60
2017-06-20T20:01:47.739Z,11.60
2017-06-20T20:04:16.223Z,11.50
2017-06-20T20:06:44.653Z,11.20
2017-06-20T20:09:13.168Z,11.23
2017-06-20T20:11:41.634Z,11.40
2017-06-20T20:14:11.052Z,16.80
2017-06-20T20:16:40.355Z,15.00
2017-06-20T20:19:08.805Z,13.70
2017-06-20T20:21:37.320Z,10.77
2017-06-20T20:24:05.763Z,12.90
2017-06-20T20:26:34.196Z,10.63
2017-06-20T20:29:02.648Z,9.30
2017-06-20T20:31:31.089Z,10.37
2017-06-20T20:33:59.510Z,9.30
2017-06-20T20:36:27.944Z,9.27
2017-06-20T20:38:56.387Z,9.50
2017-06-20T20:41:24.801Z,16.40
2017-06-20T20:43:53.228Z,12.40
2017-06-20T20:46:21.697Z,10.80
2017-06-20T20:48:49.948Z,9.60
2017-06-20T20:51:18.392Z,9.67
2017-06-20T20:53:46.924Z,10.07
2017-06-20T20:56:15.405Z,9.33
2017-06-20T20:58:44.621Z,11.90
2017-06-20T21:01:13.045Z,10.20
2017-06-20T21:03:41.564Z,9.80
2017-06-20T21:06:11.607Z,9.37
2017-06-20T21:08:40.048Z,7.67
2017-06-20T21:11:09.236Z,9.87
2017-06-20T21:13:38.431Z,8.10
2017-06-20T21:16:06.867Z,8.83
2017-06-20T21:18:35.293Z,7.80
2017-06-20T21:21:04.471Z,8.67
2017-06-20T21:23:33.010Z,9.20
2017-06-20T21:26:01.434Z,7.97
2017-06-20T21:28:29.837Z,8.30
2017-06-20T21:30:59.035Z,8.80
2017-06-20T21:33:27.451Z,8.60
2017-06-20T21:35:55.896Z,9.00
2017-06-20T21:38:24.373Z,7.90
2017-06-20T21:40:52.792Z,12.67
2017-06-20T21:43:21.240Z,10.70
2017-06-20T21:45:49.690Z,10.20
2017-06-20T21:48:18.113Z,9.07
2017-06-20T21:50:46.593Z,7.77
2017-06-20T21:53:15.081Z,9.43
2017-06-20T21:55:43.534Z,9.03
2017-06-20T21:58:11.994Z,9.37
2017-06-20T22:00:41.192Z,7.97
2017-06-20T22:03:09.631Z,8.70
2017-06-20T22:05:38.044Z,8.40
2017-06-20T22:08:07.268Z,8.33
2017-06-20T22:10:35.747Z,8.43
2017-06-20T22:13:04.173Z,9.00
2017-06-20T22:15:32.721Z,8.03
2017-06-20T22:18:01.133Z,7.70
2017-06-20T22:20:29.553Z,8.67
2017-06-20T22:22:58.004Z,7.90
2017-06-20T22:25:26.434Z,16.77
2017-06-20T22:27:54.857Z,13.10
2017-06-20T22:30:23.307Z,13.00
2017-06-20T22:32:51.732Z,8.87
2017-06-20T22:35:20.153Z,9.00
2017-06-20T22:37:48.601Z,8.10
2017-06-20T22:40:17.772Z,7.90
2017-06-20T22:42:46.195Z,7.93
2017-06-20T22:45:14.674Z,8.90
2017-06-20T22:47:43.087Z,8.30
2017-06-20T22:50:11.507Z,9.10
2017-06-20T22:52:40.702Z,9.07
2017-06-20T22:55:09.925Z,7.87
2017-06-20T22:57:38.572Z,16.37
2017-06-20T23:00:07.016Z,16.00
2017-06-20T23:02:35.468Z,13.10
2017-06-20T23:05:03.887Z,8.20
2017-06-20T23:07:32.331Z,7.93
2017-06-20T23:10:00.771Z,8.37
2017-06-20T23:12:29.181Z,7.73
2017-06-20T23:14:57.668Z,8.13
2017-06-20T23:17:26.086Z,8.07
2017-06-20T23:19:54.508Z,7.43
2017-06-20T23:22:23.810Z,6.73
2017-06-20T23:24:52.251Z,7.83
2017-06-20T23:27:20.685Z,7.20
2017-06-20T23:29:49.123Z,7.73
2017-06-20T23:32:17.536Z,7.03
2017-06-20T23:34:46.042Z,7.30
2017-06-20T23:37:14.468Z,7.50
2017-06-20T23:39:42.887Z,7.60
2017-06-20T23:42:11.348Z,7.07
2017-06-20T23:44:39.835Z,7.37
2017-06-20T23:47:08.285Z,7.37
2017-06-20T23:49:36.704Z,7.00
2017-06-20T23:52:05.136Z,6.63
2017-06-20T23:54:33.551Z,7.70
2017-06-20T23:57:02.019Z,7.40
2017-06-20T23:59:30.459Z,7.20
